TRA34Q EHAM-LPMA
Flight info
| Callsign | TRA34Q |
|---|---|
| Flight time | N/A |
| Altitude | 34000 |
| Route | EHAM/36L IDRID L980 LOGAN DCT SAM M195 LORKU DCT EBOMO DCT COQUE DCT KORUL DCT DEMOS DCT ASMAR DCT LIDRO |
| Aircraft | B738/M-SDE2E3FGHIJ1RWXYZ/LB1 |
Departure
| Time | N/A |
|---|---|
| Airport | Amsterdam Airport Schiphol (EHAM) |
Arrival
| Time | 2026-05-05 21:10 |
|---|---|
| Airport | Cristiano Ronaldo International Airport (LPMA) |
| Time | Latitude | Longitude | Altitude | Speed | Heading |
|---|---|---|---|---|---|
| 2026-05-05 18:52 | 45.35095 | -6.49229 | 34021 ft | 482 kts | 211° |
| 2026-05-05 18:52 | 45.29299 | -6.54078 | 34224 ft | 484 kts | 211° |
| 2026-05-05 18:53 | 45.26407 | -6.56493 | 34467 ft | 482 kts | 211° |
| 2026-05-05 18:53 | 45.23563 | -6.58866 | 34691 ft | 481 kts | 212° |
| 2026-05-05 18:53 | 45.20680 | -6.61268 | 34931 ft | 479 kts | 212° |
| 2026-05-05 18:53 | 45.17808 | -6.63657 | 35180 ft | 478 kts | 212° |
| 2026-05-05 18:54 | 45.14945 | -6.66035 | 35451 ft | 476 kts | 212° |
| 2026-05-05 18:54 | 45.12094 | -6.68401 | 35679 ft | 475 kts | 212° |
| 2026-05-05 18:54 | 45.09243 | -6.70766 | 35866 ft | 475 kts | 212° |
| 2026-05-05 18:54 | 45.06396 | -6.73124 | 36004 ft | 475 kts | 212° |
| 2026-05-05 18:55 | 45.00667 | -6.77862 | 36026 ft | 477 kts | 212° |
| 2026-05-05 18:55 | 44.94952 | -6.82576 | 36031 ft | 474 kts | 212° |
| 2026-05-05 18:56 | 44.89266 | -6.87259 | 36010 ft | 472 kts | 212° |
| 2026-05-05 18:56 | 44.83596 | -6.91915 | 36034 ft | 471 kts | 213° |
| 2026-05-05 18:57 | 44.78024 | -6.96723 | 36030 ft | 470 kts | 215° |
| 2026-05-05 18:57 | 44.72509 | -7.01662 | 36039 ft | 470 kts | 215° |
| 2026-05-05 18:58 | 44.66981 | -7.06599 | 36036 ft | 471 kts | 215° |
| 2026-05-05 18:58 | 44.61436 | -7.11508 | 36037 ft | 472 kts | 214° |
| 2026-05-05 18:59 | 44.55868 | -7.16409 | 36042 ft | 473 kts | 214° |
| 2026-05-05 18:59 | 44.50291 | -7.21305 | 36041 ft | 474 kts | 214° |
| 2026-05-05 19:00 | 44.44699 | -7.26202 | 36039 ft | 474 kts | 214° |
| 2026-05-05 19:00 | 44.39105 | -7.31092 | 36045 ft | 474 kts | 214° |
| 2026-05-05 19:01 | 44.33508 | -7.35973 | 36049 ft | 474 kts | 215° |
| 2026-05-05 19:01 | 44.27916 | -7.40839 | 36043 ft | 474 kts | 215° |
| 2026-05-05 19:02 | 44.22325 | -7.45692 | 36046 ft | 473 kts | 215° |
| 2026-05-05 19:02 | 44.16734 | -7.50534 | 36035 ft | 473 kts | 215° |
| 2026-05-05 19:03 | 44.11194 | -7.55321 | 36046 ft | 471 kts | 215° |
| 2026-05-05 19:03 | 44.05625 | -7.60123 | 36046 ft | 471 kts | 215° |
| 2026-05-05 19:04 | 44.00066 | -7.64906 | 36052 ft | 470 kts | 215° |
| 2026-05-05 19:04 | 43.94508 | -7.69678 | 36058 ft | 469 kts | 216° |
| 2026-05-05 19:05 | 43.88961 | -7.74429 | 36056 ft | 469 kts | 216° |
| 2026-05-05 19:05 | 43.83411 | -7.79172 | 36060 ft | 468 kts | 216° |
| 2026-05-05 19:06 | 43.77861 | -7.83905 | 36060 ft | 468 kts | 215° |
| 2026-05-05 19:06 | 43.72317 | -7.88622 | 36058 ft | 467 kts | 216° |
| 2026-05-05 19:07 | 43.66785 | -7.93318 | 36067 ft | 466 kts | 216° |
| 2026-05-05 19:07 | 43.61251 | -7.98006 | 36071 ft | 466 kts | 216° |
| 2026-05-05 19:08 | 43.55712 | -8.02690 | 36079 ft | 469 kts | 216° |
| 2026-05-05 19:08 | 43.50123 | -8.07406 | 36077 ft | 471 kts | 215° |
| 2026-05-05 19:09 | 43.44536 | -8.12106 | 36065 ft | 470 kts | 215° |
| 2026-05-05 19:09 | 43.38954 | -8.16792 | 36075 ft | 469 kts | 215° |
| 2026-05-05 19:10 | 43.33374 | -8.21468 | 36054 ft | 469 kts | 215° |
| 2026-05-05 19:10 | 43.27811 | -8.26118 | 36073 ft | 467 kts | 215° |
| 2026-05-05 19:11 | 43.22298 | -8.30718 | 36080 ft | 467 kts | 215° |
| 2026-05-05 19:11 | 43.16752 | -8.35335 | 36058 ft | 466 kts | 215° |
| 2026-05-05 19:12 | 43.11222 | -8.39930 | 36059 ft | 464 kts | 215° |
| 2026-05-05 19:12 | 43.05704 | -8.44504 | 36079 ft | 463 kts | 215° |
| 2026-05-05 19:13 | 43.00194 | -8.49062 | 36071 ft | 462 kts | 215° |
| 2026-05-05 19:13 | 42.94695 | -8.53600 | 36073 ft | 462 kts | 215° |
| 2026-05-05 19:14 | 42.89198 | -8.58129 | 36068 ft | 461 kts | 215° |
| 2026-05-05 19:14 | 42.83712 | -8.62639 | 36080 ft | 460 kts | 215° |
| 2026-05-05 19:15 | 42.78225 | -8.67140 | 36076 ft | 460 kts | 215° |
| 2026-05-05 19:15 | 42.72747 | -8.71624 | 36074 ft | 460 kts | 215° |
| 2026-05-05 19:16 | 42.67272 | -8.76096 | 36063 ft | 458 kts | 214° |
| 2026-05-05 19:16 | 42.61808 | -8.80550 | 36068 ft | 458 kts | 214° |
| 2026-05-05 19:17 | 42.56346 | -8.84993 | 36069 ft | 457 kts | 214° |
| 2026-05-05 19:17 | 42.50889 | -8.89424 | 36073 ft | 457 kts | 214° |
| 2026-05-05 19:18 | 42.45434 | -8.93843 | 36073 ft | 457 kts | 214° |
| 2026-05-05 19:18 | 42.39978 | -8.98254 | 36071 ft | 457 kts | 214° |
| 2026-05-05 19:19 | 42.34513 | -9.02663 | 36072 ft | 457 kts | 214° |
| 2026-05-05 19:19 | 42.29089 | -9.07031 | 36072 ft | 457 kts | 214° |
| 2026-05-05 19:20 | 42.23624 | -9.11423 | 36055 ft | 456 kts | 214° |
| 2026-05-05 19:20 | 42.18178 | -9.15790 | 36066 ft | 455 kts | 214° |
| 2026-05-05 19:21 | 42.12732 | -9.20150 | 36072 ft | 455 kts | 214° |
| 2026-05-05 19:21 | 42.07295 | -9.24494 | 36073 ft | 454 kts | 214° |
| 2026-05-05 19:22 | 42.01862 | -9.28826 | 36071 ft | 454 kts | 214° |
| 2026-05-05 19:22 | 41.96432 | -9.33150 | 36076 ft | 453 kts | 214° |
| 2026-05-05 19:23 | 41.91042 | -9.37523 | 36071 ft | 452 kts | 217° |
| 2026-05-05 19:23 | 41.85844 | -9.42234 | 36085 ft | 450 kts | 218° |
| 2026-05-05 19:24 | 41.80689 | -9.47020 | 36074 ft | 450 kts | 218° |
| 2026-05-05 19:24 | 41.75533 | -9.51768 | 36072 ft | 450 kts | 218° |
| 2026-05-05 19:25 | 41.70364 | -9.56488 | 36083 ft | 449 kts | 218° |
| 2026-05-05 19:25 | 41.65192 | -9.61187 | 36085 ft | 449 kts | 218° |
| 2026-05-05 19:26 | 41.60890 | -9.65088 | 36087 ft | 449 kts | 218° |
| 2026-05-05 19:26 | 41.55716 | -9.69770 | 36088 ft | 449 kts | 218° |
| 2026-05-05 19:27 | 41.50546 | -9.74442 | 36090 ft | 449 kts | 218° |
| 2026-05-05 19:27 | 41.44539 | -9.79858 | 36092 ft | 448 kts | 218° |
| 2026-05-05 19:28 | 41.40209 | -9.83755 | 36085 ft | 448 kts | 218° |
| 2026-05-05 19:28 | 41.35037 | -9.88401 | 36097 ft | 448 kts | 217° |
| 2026-05-05 19:29 | 41.29870 | -9.93033 | 36091 ft | 447 kts | 217° |
| 2026-05-05 19:29 | 41.24705 | -9.97655 | 36095 ft | 447 kts | 217° |
| 2026-05-05 19:30 | 41.19547 | -10.02262 | 36100 ft | 447 kts | 217° |
| 2026-05-05 19:30 | 41.14385 | -10.06867 | 36101 ft | 447 kts | 218° |
| 2026-05-05 19:31 | 41.09225 | -10.11467 | 36098 ft | 446 kts | 218° |
| 2026-05-05 19:31 | 41.04104 | -10.16016 | 36105 ft | 446 kts | 218° |
| 2026-05-05 19:32 | 40.98950 | -10.20583 | 36093 ft | 445 kts | 218° |
| 2026-05-05 19:32 | 40.93801 | -10.25137 | 36104 ft | 445 kts | 218° |
| 2026-05-05 19:33 | 40.88654 | -10.29681 | 36097 ft | 445 kts | 218° |
| 2026-05-05 19:33 | 40.83508 | -10.34215 | 36107 ft | 444 kts | 218° |
| 2026-05-05 19:34 | 40.78366 | -10.38738 | 36111 ft | 444 kts | 218° |
| 2026-05-05 19:35 | 40.70650 | -10.45509 | 36119 ft | 444 kts | 218° |
| 2026-05-05 19:35 | 40.65507 | -10.50011 | 36116 ft | 444 kts | 218° |
| 2026-05-05 19:36 | 40.60367 | -10.54501 | 36110 ft | 443 kts | 218° |
| 2026-05-05 19:36 | 40.55231 | -10.58980 | 36108 ft | 443 kts | 217° |
| 2026-05-05 19:37 | 40.50097 | -10.63450 | 36116 ft | 443 kts | 217° |
| 2026-05-05 19:37 | 40.44961 | -10.67912 | 36119 ft | 443 kts | 217° |
| 2026-05-05 19:38 | 40.39820 | -10.72370 | 36111 ft | 443 kts | 217° |
| 2026-05-05 19:38 | 40.34682 | -10.76818 | 36120 ft | 443 kts | 217° |
| 2026-05-05 19:39 | 40.29540 | -10.81260 | 36118 ft | 443 kts | 217° |
| 2026-05-05 19:39 | 40.24393 | -10.85699 | 36115 ft | 443 kts | 217° |
| 2026-05-05 19:40 | 40.19245 | -10.90131 | 36126 ft | 443 kts | 217° |
| 2026-05-05 19:40 | 40.14099 | -10.94553 | 36116 ft | 443 kts | 217° |
| 2026-05-05 19:41 | 40.08947 | -10.98972 | 36130 ft | 443 kts | 217° |
| 2026-05-05 19:41 | 40.03784 | -11.03392 | 36130 ft | 444 kts | 217° |
| 2026-05-05 19:42 | 39.98625 | -11.07800 | 36129 ft | 444 kts | 217° |
| 2026-05-05 19:42 | 39.93454 | -11.12211 | 36116 ft | 444 kts | 217° |
| 2026-05-05 19:43 | 39.88288 | -11.16608 | 36130 ft | 444 kts | 217° |
| 2026-05-05 19:43 | 39.83151 | -11.20974 | 36131 ft | 444 kts | 217° |
| 2026-05-05 19:44 | 39.77978 | -11.25362 | 36130 ft | 444 kts | 217° |
| 2026-05-05 19:44 | 39.72798 | -11.29749 | 36131 ft | 444 kts | 217° |
| 2026-05-05 19:45 | 39.67622 | -11.34123 | 36128 ft | 444 kts | 217° |
| 2026-05-05 19:45 | 39.62446 | -11.38491 | 36133 ft | 444 kts | 217° |
| 2026-05-05 19:46 | 39.57273 | -11.42847 | 36134 ft | 443 kts | 217° |
| 2026-05-05 19:46 | 39.52102 | -11.47195 | 36133 ft | 443 kts | 217° |
| 2026-05-05 19:47 | 39.46919 | -11.51545 | 36134 ft | 443 kts | 217° |
| 2026-05-05 19:47 | 39.41748 | -11.55878 | 36133 ft | 442 kts | 217° |
| 2026-05-05 19:48 | 39.36589 | -11.60191 | 36131 ft | 441 kts | 217° |
| 2026-05-05 19:48 | 39.31434 | -11.64488 | 36139 ft | 441 kts | 217° |
| 2026-05-05 19:49 | 39.26281 | -11.68774 | 36135 ft | 440 kts | 217° |
| 2026-05-05 19:49 | 39.21129 | -11.73056 | 36120 ft | 440 kts | 217° |
| 2026-05-05 19:50 | 39.15987 | -11.77321 | 36138 ft | 439 kts | 217° |
| 2026-05-05 19:50 | 39.10861 | -11.81566 | 36143 ft | 438 kts | 217° |
| 2026-05-05 19:51 | 39.05727 | -11.85811 | 36143 ft | 438 kts | 217° |
| 2026-05-05 19:51 | 39.00605 | -11.90038 | 36148 ft | 437 kts | 217° |
| 2026-05-05 19:52 | 38.95485 | -11.94256 | 36139 ft | 437 kts | 217° |
| 2026-05-05 19:52 | 38.90371 | -11.98462 | 36147 ft | 436 kts | 217° |
| 2026-05-05 19:53 | 38.85294 | -12.02631 | 36148 ft | 436 kts | 217° |
| 2026-05-05 19:53 | 38.80153 | -12.06844 | 36146 ft | 436 kts | 216° |
| 2026-05-05 19:54 | 38.75078 | -12.10996 | 36155 ft | 436 kts | 216° |
| 2026-05-05 19:54 | 38.69965 | -12.15173 | 36144 ft | 436 kts | 216° |
| 2026-05-05 19:55 | 38.64859 | -12.19336 | 36147 ft | 435 kts | 216° |
| 2026-05-05 19:55 | 38.59753 | -12.23491 | 36160 ft | 435 kts | 216° |
| 2026-05-05 19:56 | 38.54654 | -12.27636 | 36159 ft | 434 kts | 216° |
| 2026-05-05 19:56 | 38.49550 | -12.31776 | 36156 ft | 434 kts | 216° |
| 2026-05-05 19:57 | 38.44449 | -12.35906 | 36145 ft | 434 kts | 216° |
| 2026-05-05 19:57 | 38.39358 | -12.40022 | 36159 ft | 433 kts | 216° |
| 2026-05-05 19:58 | 38.34266 | -12.44132 | 36157 ft | 433 kts | 216° |
| 2026-05-05 19:58 | 38.29172 | -12.48237 | 36164 ft | 434 kts | 216° |
| 2026-05-05 19:59 | 38.24068 | -12.52343 | 36158 ft | 434 kts | 216° |
| 2026-05-05 19:59 | 38.18964 | -12.56441 | 36146 ft | 434 kts | 216° |
| 2026-05-05 20:00 | 38.13861 | -12.60531 | 36155 ft | 433 kts | 216° |
| 2026-05-05 20:00 | 38.08764 | -12.64611 | 36168 ft | 433 kts | 216° |
| 2026-05-05 20:01 | 38.03663 | -12.68686 | 36166 ft | 433 kts | 216° |
| 2026-05-05 20:01 | 37.98592 | -12.72731 | 36163 ft | 433 kts | 216° |
| 2026-05-05 20:02 | 37.93493 | -12.76792 | 36146 ft | 433 kts | 216° |
| 2026-05-05 20:02 | 37.88388 | -12.80851 | 36162 ft | 433 kts | 216° |
| 2026-05-05 20:03 | 37.83282 | -12.84904 | 36164 ft | 434 kts | 216° |
| 2026-05-05 20:03 | 37.78168 | -12.88956 | 36164 ft | 434 kts | 216° |
| 2026-05-05 20:04 | 37.73049 | -12.93005 | 36167 ft | 434 kts | 216° |
| 2026-05-05 20:04 | 37.67922 | -12.97055 | 36166 ft | 434 kts | 216° |
| 2026-05-05 20:05 | 37.62794 | -13.01097 | 36164 ft | 435 kts | 216° |
| 2026-05-05 20:05 | 37.57667 | -13.05133 | 36166 ft | 435 kts | 216° |
| 2026-05-05 20:06 | 37.52537 | -13.09165 | 36170 ft | 435 kts | 216° |
| 2026-05-05 20:06 | 37.47403 | -13.13192 | 36168 ft | 435 kts | 216° |
| 2026-05-05 20:07 | 37.42269 | -13.17214 | 36158 ft | 435 kts | 216° |
| 2026-05-05 20:07 | 37.37162 | -13.21208 | 36169 ft | 435 kts | 216° |
| 2026-05-05 20:08 | 37.32023 | -13.25220 | 36169 ft | 435 kts | 216° |
| 2026-05-05 20:08 | 37.26879 | -13.29230 | 36169 ft | 435 kts | 216° |
| 2026-05-05 20:09 | 37.21729 | -13.33237 | 36167 ft | 435 kts | 216° |
| 2026-05-05 20:09 | 37.16584 | -13.37235 | 36162 ft | 435 kts | 216° |
| 2026-05-05 20:10 | 37.11442 | -13.41223 | 36171 ft | 434 kts | 215° |
| 2026-05-05 20:10 | 37.06301 | -13.45204 | 36170 ft | 434 kts | 215° |
| 2026-05-05 20:11 | 37.01156 | -13.49182 | 36171 ft | 434 kts | 215° |
| 2026-05-05 20:11 | 36.96014 | -13.53152 | 36172 ft | 435 kts | 215° |
| 2026-05-05 20:12 | 36.90866 | -13.57119 | 36162 ft | 435 kts | 215° |
| 2026-05-05 20:12 | 36.85719 | -13.61079 | 36170 ft | 434 kts | 215° |
| 2026-05-05 20:13 | 36.80573 | -13.65033 | 36175 ft | 434 kts | 215° |
| 2026-05-05 20:13 | 36.75421 | -13.68984 | 36175 ft | 434 kts | 215° |
| 2026-05-05 20:14 | 36.70270 | -13.72929 | 36173 ft | 434 kts | 215° |
| 2026-05-05 20:14 | 36.65122 | -13.76864 | 36163 ft | 434 kts | 215° |
| 2026-05-05 20:15 | 36.60846 | -13.80129 | 36171 ft | 433 kts | 215° |
| 2026-05-05 20:15 | 36.55705 | -13.84048 | 36176 ft | 433 kts | 215° |
| 2026-05-05 20:16 | 36.50567 | -13.87959 | 36167 ft | 433 kts | 215° |
| 2026-05-05 20:16 | 36.45420 | -13.91871 | 36173 ft | 434 kts | 215° |
| 2026-05-05 20:17 | 36.40272 | -13.95777 | 36158 ft | 434 kts | 215° |
| 2026-05-05 20:17 | 36.35121 | -13.99679 | 36174 ft | 433 kts | 215° |
| 2026-05-05 20:18 | 36.29976 | -14.03570 | 36176 ft | 433 kts | 215° |
| 2026-05-05 20:18 | 36.24829 | -14.07457 | 36176 ft | 433 kts | 215° |
| 2026-05-05 20:19 | 36.19682 | -14.11338 | 36173 ft | 433 kts | 215° |
| 2026-05-05 20:19 | 36.14534 | -14.15214 | 36159 ft | 433 kts | 215° |
| 2026-05-05 20:20 | 36.09387 | -14.19082 | 36164 ft | 433 kts | 215° |
| 2026-05-05 20:20 | 36.04239 | -14.22946 | 36174 ft | 433 kts | 215° |
| 2026-05-05 20:21 | 35.99124 | -14.26779 | 36179 ft | 433 kts | 215° |
| 2026-05-05 20:21 | 35.93934 | -14.30662 | 36175 ft | 434 kts | 215° |
| 2026-05-05 20:22 | 35.88810 | -14.34490 | 36169 ft | 434 kts | 215° |
| 2026-05-05 20:22 | 35.83649 | -14.38339 | 36167 ft | 433 kts | 215° |
| 2026-05-05 20:23 | 35.78487 | -14.42184 | 36176 ft | 433 kts | 215° |
| 2026-05-05 20:23 | 35.73328 | -14.46020 | 36172 ft | 433 kts | 215° |
| 2026-05-05 20:24 | 35.68166 | -14.49852 | 36171 ft | 433 kts | 215° |
| 2026-05-05 20:24 | 35.63005 | -14.53678 | 36171 ft | 433 kts | 215° |
| 2026-05-05 20:25 | 35.57840 | -14.57501 | 36160 ft | 433 kts | 215° |
| 2026-05-05 20:25 | 35.52676 | -14.61318 | 36169 ft | 433 kts | 214° |
| 2026-05-05 20:26 | 35.47506 | -14.65133 | 36171 ft | 434 kts | 214° |
| 2026-05-05 20:26 | 35.42332 | -14.68945 | 36167 ft | 434 kts | 214° |
| 2026-05-05 20:27 | 35.37158 | -14.72752 | 36168 ft | 434 kts | 214° |
| 2026-05-05 20:27 | 35.31979 | -14.76557 | 36145 ft | 434 kts | 214° |
| 2026-05-05 20:28 | 35.26799 | -14.80356 | 36167 ft | 434 kts | 214° |
| 2026-05-05 20:28 | 35.21647 | -14.84129 | 36164 ft | 435 kts | 214° |
| 2026-05-05 20:29 | 35.16454 | -14.87927 | 36166 ft | 435 kts | 214° |
| 2026-05-05 20:29 | 35.11258 | -14.91721 | 36163 ft | 435 kts | 214° |
| 2026-05-05 20:30 | 35.06059 | -14.95511 | 36158 ft | 435 kts | 214° |
| 2026-05-05 20:30 | 35.00860 | -14.99296 | 36172 ft | 435 kts | 214° |
| 2026-05-05 20:31 | 34.95654 | -15.03080 | 36164 ft | 435 kts | 214° |
| 2026-05-05 20:31 | 34.90453 | -15.06855 | 36168 ft | 435 kts | 214° |
| 2026-05-05 20:32 | 34.85244 | -15.10630 | 36159 ft | 435 kts | 214° |
| 2026-05-05 20:32 | 34.80039 | -15.14396 | 36163 ft | 435 kts | 214° |
| 2026-05-05 20:33 | 34.74833 | -15.18158 | 36162 ft | 435 kts | 214° |
| 2026-05-05 20:33 | 34.69629 | -15.21913 | 36164 ft | 435 kts | 214° |
| 2026-05-05 20:34 | 34.64417 | -15.25668 | 36162 ft | 435 kts | 214° |
| 2026-05-05 20:34 | 34.59206 | -15.29417 | 36164 ft | 436 kts | 214° |
| 2026-05-05 20:35 | 34.53989 | -15.33164 | 36160 ft | 436 kts | 214° |
| 2026-05-05 20:35 | 34.48775 | -15.36904 | 36155 ft | 435 kts | 214° |
| 2026-05-05 20:36 | 34.43562 | -15.40637 | 36156 ft | 435 kts | 214° |
| 2026-05-05 20:36 | 34.38346 | -15.44368 | 36155 ft | 435 kts | 214° |
| 2026-05-05 20:37 | 34.33133 | -15.48091 | 36156 ft | 435 kts | 214° |
| 2026-05-05 20:37 | 34.30558 | -15.49928 | 35796 ft | 438 kts | 214° |
| 2026-05-05 20:37 | 34.27953 | -15.51784 | 35280 ft | 432 kts | 214° |
| 2026-05-05 20:37 | 34.25358 | -15.53632 | 34594 ft | 433 kts | 214° |
| 2026-05-05 20:38 | 34.22767 | -15.55476 | 33922 ft | 431 kts | 214° |
| 2026-05-05 20:38 | 34.20175 | -15.57320 | 33136 ft | 432 kts | 214° |
| 2026-05-05 20:38 | 34.17585 | -15.59161 | 32408 ft | 432 kts | 214° |
| 2026-05-05 20:38 | 34.15002 | -15.60996 | 31792 ft | 430 kts | 214° |
| 2026-05-05 20:39 | 34.12441 | -15.62812 | 31317 ft | 425 kts | 214° |
| 2026-05-05 20:39 | 34.09905 | -15.64610 | 30819 ft | 421 kts | 213° |
| 2026-05-05 20:39 | 34.07393 | -15.66390 | 30331 ft | 417 kts | 213° |
| 2026-05-05 20:39 | 34.04896 | -15.68158 | 29785 ft | 414 kts | 213° |
| 2026-05-05 20:40 | 34.02425 | -15.69907 | 29257 ft | 410 kts | 213° |
| 2026-05-05 20:40 | 33.99982 | -15.71635 | 28760 ft | 405 kts | 214° |
| 2026-05-05 20:40 | 33.97562 | -15.73345 | 28287 ft | 401 kts | 214° |
| 2026-05-05 20:40 | 33.95167 | -15.75037 | 27779 ft | 397 kts | 214° |
| 2026-05-05 20:41 | 33.92798 | -15.76709 | 27295 ft | 393 kts | 214° |
| 2026-05-05 20:41 | 33.90446 | -15.78369 | 26822 ft | 390 kts | 214° |
| 2026-05-05 20:41 | 33.88113 | -15.80014 | 26338 ft | 387 kts | 214° |
| 2026-05-05 20:41 | 33.85796 | -15.81647 | 25878 ft | 385 kts | 214° |
| 2026-05-05 20:42 | 33.83495 | -15.83268 | 25411 ft | 382 kts | 214° |
| 2026-05-05 20:42 | 33.81206 | -15.84879 | 24950 ft | 380 kts | 214° |
| 2026-05-05 20:42 | 33.78925 | -15.86484 | 24485 ft | 379 kts | 214° |
| 2026-05-05 20:42 | 33.76652 | -15.88082 | 24006 ft | 378 kts | 214° |
| 2026-05-05 20:43 | 33.74386 | -15.89675 | 23499 ft | 377 kts | 214° |
| 2026-05-05 20:43 | 33.72136 | -15.91255 | 22991 ft | 375 kts | 214° |
| 2026-05-05 20:43 | 33.69887 | -15.92833 | 22502 ft | 373 kts | 214° |
| 2026-05-05 20:43 | 33.67685 | -15.94377 | 22036 ft | 370 kts | 214° |
| 2026-05-05 20:44 | 33.65477 | -15.95948 | 21382 ft | 371 kts | 215° |
| 2026-05-05 20:44 | 33.63284 | -15.97607 | 20807 ft | 372 kts | 216° |
| 2026-05-05 20:44 | 33.61101 | -15.99294 | 20506 ft | 365 kts | 216° |
| 2026-05-05 20:44 | 33.58970 | -16.00947 | 20066 ft | 363 kts | 216° |
| 2026-05-05 20:45 | 33.54782 | -16.04181 | 19222 ft | 359 kts | 216° |
| 2026-05-05 20:45 | 33.52681 | -16.05795 | 18793 ft | 358 kts | 216° |
| 2026-05-05 20:45 | 33.50584 | -16.07402 | 18327 ft | 358 kts | 216° |
| 2026-05-05 20:46 | 33.48488 | -16.09006 | 17839 ft | 357 kts | 215° |
| 2026-05-05 20:46 | 33.46400 | -16.10600 | 17381 ft | 355 kts | 215° |
| 2026-05-05 20:46 | 33.44327 | -16.12182 | 16937 ft | 353 kts | 215° |
| 2026-05-05 20:46 | 33.42247 | -16.13768 | 16404 ft | 354 kts | 215° |
| 2026-05-05 20:47 | 33.40175 | -16.15347 | 15963 ft | 353 kts | 214° |
| 2026-05-05 20:47 | 33.38108 | -16.16920 | 15525 ft | 351 kts | 215° |
| 2026-05-05 20:47 | 33.36054 | -16.18484 | 15090 ft | 349 kts | 216° |
| 2026-05-05 20:47 | 33.34006 | -16.20042 | 14660 ft | 348 kts | 217° |
| 2026-05-05 20:48 | 33.31964 | -16.21596 | 14210 ft | 348 kts | 214° |
| 2026-05-05 20:48 | 33.29924 | -16.23145 | 13747 ft | 347 kts | 215° |
| 2026-05-05 20:48 | 33.27888 | -16.24692 | 13289 ft | 346 kts | 215° |
| 2026-05-05 20:48 | 33.25857 | -16.26232 | 12843 ft | 344 kts | 214° |
| 2026-05-05 20:49 | 33.23840 | -16.27761 | 12408 ft | 343 kts | 214° |
| 2026-05-05 20:49 | 33.21835 | -16.29280 | 11976 ft | 341 kts | 214° |
| 2026-05-05 20:49 | 33.19838 | -16.30794 | 11555 ft | 339 kts | 214° |
| 2026-05-05 20:49 | 33.17851 | -16.32300 | 11144 ft | 337 kts | 213° |
| 2026-05-05 20:50 | 33.15876 | -16.33796 | 10805 ft | 333 kts | 213° |
| 2026-05-05 20:50 | 33.13947 | -16.35254 | 10653 ft | 323 kts | 213° |
| 2026-05-05 20:50 | 33.12077 | -16.36668 | 10502 ft | 314 kts | 213° |
| 2026-05-05 20:50 | 33.10256 | -16.38044 | 10354 ft | 306 kts | 213° |
| 2026-05-05 20:51 | 33.08480 | -16.39385 | 10174 ft | 299 kts | 213° |
| 2026-05-05 20:51 | 33.06743 | -16.40698 | 10023 ft | 292 kts | 213° |
| 2026-05-05 20:51 | 33.05034 | -16.41989 | 9713 ft | 291 kts | 213° |
| 2026-05-05 20:51 | 33.03332 | -16.43275 | 9425 ft | 288 kts | 213° |
| 2026-05-05 20:52 | 33.01643 | -16.44551 | 9133 ft | 287 kts | 213° |
| 2026-05-05 20:52 | 32.99964 | -16.45818 | 8836 ft | 285 kts | 213° |
| 2026-05-05 20:52 | 32.98297 | -16.47076 | 8560 ft | 283 kts | 213° |
| 2026-05-05 20:52 | 32.96636 | -16.48328 | 8279 ft | 282 kts | 213° |
| 2026-05-05 20:53 | 32.94985 | -16.49573 | 8002 ft | 280 kts | 213° |
| 2026-05-05 20:53 | 32.93342 | -16.50810 | 7733 ft | 279 kts | 213° |
| 2026-05-05 20:53 | 32.91786 | -16.52164 | 7442 ft | 277 kts | 222° |
| 2026-05-05 20:53 | 32.90372 | -16.53715 | 7174 ft | 275 kts | 224° |
| 2026-05-05 20:54 | 32.88974 | -16.55270 | 6897 ft | 275 kts | 223° |
| 2026-05-05 20:54 | 32.87571 | -16.56801 | 6670 ft | 272 kts | 223° |
| 2026-05-05 20:54 | 32.86193 | -16.58286 | 6527 ft | 264 kts | 223° |
| 2026-05-05 20:54 | 32.84837 | -16.59737 | 6317 ft | 261 kts | 222° |
| 2026-05-05 20:55 | 32.83487 | -16.61180 | 6056 ft | 260 kts | 222° |
| 2026-05-05 20:55 | 32.82120 | -16.62540 | 5789 ft | 260 kts | 214° |
| 2026-05-05 20:55 | 32.80551 | -16.63577 | 5542 ft | 258 kts | 201° |
| 2026-05-05 20:55 | 32.78861 | -16.64273 | 5286 ft | 256 kts | 196° |
| 2026-05-05 20:56 | 32.77173 | -16.64936 | 5014 ft | 255 kts | 195° |
| 2026-05-05 20:56 | 32.75487 | -16.65574 | 4743 ft | 253 kts | 198° |
| 2026-05-05 20:56 | 32.73841 | -16.66303 | 4503 ft | 252 kts | 199° |
| 2026-05-05 20:56 | 32.72202 | -16.66997 | 4300 ft | 248 kts | 197° |
| 2026-05-05 20:57 | 32.70597 | -16.67636 | 4164 ft | 237 kts | 194° |
| 2026-05-05 20:57 | 32.69066 | -16.68237 | 3917 ft | 226 kts | 195° |
| 2026-05-05 20:57 | 32.67605 | -16.68823 | 3704 ft | 219 kts | 194° |
| 2026-05-05 20:57 | 32.66190 | -16.69395 | 3511 ft | 211 kts | 194° |
| 2026-05-05 20:58 | 32.64819 | -16.69949 | 3261 ft | 204 kts | 195° |
| 2026-05-05 20:58 | 32.63496 | -16.70512 | 3056 ft | 199 kts | 200° |
| 2026-05-05 20:58 | 32.62326 | -16.71367 | 2855 ft | 197 kts | 220° |
| 2026-05-05 20:58 | 32.61457 | -16.72609 | 2672 ft | 195 kts | 241° |
| 2026-05-05 20:59 | 32.60955 | -16.74038 | 2493 ft | 181 kts | 258° |
| 2026-05-05 20:59 | 32.60801 | -16.75433 | 2322 ft | 167 kts | 274° |
| 2026-05-05 20:59 | 32.60898 | -16.76781 | 2106 ft | 161 kts | 284° |
| 2026-05-05 20:59 | 32.61207 | -16.78037 | 1865 ft | 156 kts | 302° |
| 2026-05-05 21:00 | 32.61797 | -16.79084 | 1706 ft | 152 kts | 321° |
| 2026-05-05 21:00 | 32.62614 | -16.79850 | 1506 ft | 148 kts | 337° |
| 2026-05-05 21:00 | 32.63545 | -16.80266 | 1325 ft | 141 kts | 354° |
| 2026-05-05 21:00 | 32.64501 | -16.80373 | 1134 ft | 136 kts | 5° |
| 2026-05-05 21:01 | 32.65431 | -16.80359 | 937 ft | 135 kts | 6° |
| 2026-05-05 21:01 | 32.66338 | -16.80300 | 759 ft | 126 kts | 8° |
| 2026-05-05 21:01 | 32.67199 | -16.80099 | 632 ft | 126 kts | 18° |
| 2026-05-05 21:01 | 32.67961 | -16.79589 | 511 ft | 128 kts | 41° |
| 2026-05-05 21:02 | 32.68591 | -16.78846 | 322 ft | 128 kts | 44° |
| 2026-05-05 21:02 | 32.69218 | -16.78083 | 359 ft | 131 kts | 45° |
| 2026-05-05 21:02 | 32.69834 | -16.77298 | 1258 ft | 139 kts | 45° |
| 2026-05-05 21:02 | 32.70589 | -16.76398 | 1925 ft | 167 kts | 45° |
| 2026-05-05 21:03 | 32.71404 | -16.75387 | 2615 ft | 169 kts | 53° |
| 2026-05-05 21:03 | 32.72061 | -16.74102 | 2957 ft | 196 kts | 64° |
| 2026-05-05 21:03 | 32.72561 | -16.72481 | 3009 ft | 220 kts | 75° |
| 2026-05-05 21:03 | 32.72747 | -16.70673 | 2993 ft | 219 kts | 86° |
| 2026-05-05 21:04 | 32.72673 | -16.68901 | 2996 ft | 212 kts | 96° |
| 2026-05-05 21:04 | 32.72326 | -16.67224 | 3001 ft | 207 kts | 107° |
| 2026-05-05 21:04 | 32.71485 | -16.65832 | 3001 ft | 216 kts | 140° |
| 2026-05-05 21:04 | 32.70075 | -16.65178 | 2999 ft | 223 kts | 170° |
| 2026-05-05 21:05 | 32.68539 | -16.65416 | 2991 ft | 227 kts | 199° |
| 2026-05-05 21:05 | 32.67637 | -16.66050 | 3010 ft | 230 kts | 217° |
| 2026-05-05 21:05 | 32.66484 | -16.67397 | 2996 ft | 235 kts | 223° |
| 2026-05-05 21:05 | 32.65351 | -16.68781 | 2994 ft | 232 kts | 224° |
| 2026-05-05 21:06 | 32.64257 | -16.70150 | 2980 ft | 225 kts | 231° |
| 2026-05-05 21:06 | 32.63512 | -16.71715 | 2988 ft | 212 kts | 246° |
| 2026-05-05 21:06 | 32.62885 | -16.73289 | 2988 ft | 212 kts | 245° |
| 2026-05-05 21:06 | 32.62228 | -16.74880 | 2548 ft | 216 kts | 245° |
| 2026-05-05 21:07 | 32.61576 | -16.76435 | 2219 ft | 206 kts | 245° |
| 2026-05-05 21:07 | 32.60971 | -16.77902 | 1934 ft | 188 kts | 250° |
| 2026-05-05 21:07 | 32.60983 | -16.79271 | 1777 ft | 149 kts | 309° |
| 2026-05-05 21:07 | 32.61799 | -16.79845 | 1652 ft | 138 kts | 357° |
| 2026-05-05 21:08 | 32.62760 | -16.79994 | 1456 ft | 145 kts | 344° |
| 2026-05-05 21:08 | 32.63649 | -16.80515 | 1334 ft | 139 kts | 351° |
| 2026-05-05 21:08 | 32.64598 | -16.80627 | 1210 ft | 135 kts | 8° |
| 2026-05-05 21:08 | 32.65549 | -16.80506 | 1039 ft | 139 kts | 9° |
| 2026-05-05 21:09 | 32.66501 | -16.80326 | 799 ft | 139 kts | 11° |
| 2026-05-05 21:09 | 32.67429 | -16.80057 | 624 ft | 131 kts | 30° |
| 2026-05-05 21:09 | 32.68116 | -16.79391 | 481 ft | 127 kts | 43° |
| 2026-05-05 21:09 | 32.68740 | -16.78674 | 264 ft | 126 kts | 45° |
| 2026-05-05 21:10 | 32.69349 | -16.77961 | 168 ft | 112 kts | 45° |
| 2026-05-05 21:10 | 32.69744 | -16.77499 | 181 ft | 41 kts | 46° |
| 2026-05-05 21:10 | 32.69900 | -16.77314 | 184 ft | 21 kts | 44° |
| 2026-05-05 21:10 | 32.69959 | -16.77223 | 185 ft | 11 kts | 90° |
| 2026-05-05 21:11 | 32.69907 | -16.77178 | 186 ft | 10 kts | 176° |
| 2026-05-05 21:11 | 32.69825 | -16.77198 | 181 ft | 13 kts | 216° |
| 2026-05-05 21:11 | 32.69751 | -16.77285 | 174 ft | 17 kts | 225° |
| 2026-05-05 21:11 | 32.69665 | -16.77391 | 168 ft | 18 kts | 226° |
| 2026-05-05 21:12 | 32.69590 | -16.77485 | 168 ft | 15 kts | 226° |
| 2026-05-05 21:12 | 32.69519 | -16.77571 | 168 ft | 14 kts | 226° |
| 2026-05-05 21:12 | 32.69471 | -16.77633 | 168 ft | 10 kts | 225° |
| 2026-05-05 21:12 | 32.69425 | -16.77688 | 168 ft | 9 kts | 226° |
| 2026-05-05 21:13 | 32.69395 | -16.77697 | 168 ft | 5 kts | 156° |
| 2026-05-05 21:13 | 32.69370 | -16.77674 | 168 ft | 4 kts | 137° |
| 2026-05-05 21:13 | 32.69359 | -16.77662 | 168 ft | 0 kts | 137° |